createdAt,value
2022-10-17T00:01:25.335Z,5.47
2022-10-17T00:03:51.794Z,4.43
2022-10-17T00:06:18.320Z,4.50
2022-10-17T00:08:45.152Z,4.50
2022-10-17T00:11:18.128Z,3.77
2022-10-17T00:13:45.786Z,3.93
2022-10-17T00:16:12.646Z,4.20
2022-10-17T00:18:39.069Z,3.47
2022-10-17T00:21:05.654Z,3.50
2022-10-17T00:23:33.689Z,3.67
2022-10-17T00:26:05.353Z,3.37
2022-10-17T00:28:32.327Z,3.63
2022-10-17T00:31:00.405Z,3.53
2022-10-17T00:33:27.842Z,4.10
2022-10-17T00:36:13.972Z,3.70
2022-10-17T00:38:44.926Z,3.43
2022-10-17T00:41:13.716Z,3.40
2022-10-17T00:44:23.388Z,3.90
2022-10-17T00:46:49.803Z,3.87
2022-10-17T00:49:16.198Z,3.67
2022-10-17T00:51:57.810Z,3.33
2022-10-17T00:54:27.446Z,3.30
2022-10-17T00:56:54.697Z,3.90
2022-10-17T00:59:22.134Z,3.70
2022-10-17T01:02:01.463Z,4.20
2022-10-17T01:04:28.071Z,3.53
2022-10-17T01:06:54.534Z,3.77
2022-10-17T01:09:21.078Z,3.57
2022-10-17T01:11:57.168Z,3.80
2022-10-17T01:14:50.417Z,3.90
2022-10-17T01:17:28.702Z,3.23
2022-10-17T01:20:15.340Z,3.40
2022-10-17T01:22:56.544Z,3.40
2022-10-17T01:25:28.886Z,3.90
2022-10-17T01:28:09.333Z,3.60
2022-10-17T01:30:57.584Z,3.73
2022-10-17T01:33:42.275Z,3.17
2022-10-17T01:36:13.324Z,3.40
2022-10-17T01:39:03.125Z,3.70
2022-10-17T01:41:40.455Z,3.17
2022-10-17T01:44:17.770Z,3.43
2022-10-17T01:46:48.845Z,3.07
2022-10-17T01:49:16.404Z,3.23
2022-10-17T01:51:56.724Z,3.17
2022-10-17T01:54:47.554Z,3.27
2022-10-17T01:57:21.116Z,3.03
2022-10-17T01:59:51.696Z,3.27
2022-10-17T02:02:19.134Z,3.53
2022-10-17T02:04:46.966Z,4.20
2022-10-17T02:07:13.427Z,3.13
2022-10-17T02:09:40.111Z,3.57
2022-10-17T02:12:56.179Z,3.70
2022-10-17T02:15:39.654Z,4.03
2022-10-17T02:18:41.568Z,3.87
2022-10-17T02:21:31.028Z,3.97
2022-10-17T02:24:21.110Z,3.87
2022-10-17T02:26:54.541Z,3.77
2022-10-17T02:29:23.929Z,3.53
2022-10-17T02:31:56.811Z,3.73
2022-10-17T02:34:29.287Z,4.00
2022-10-17T02:37:00.782Z,3.57
2022-10-17T02:39:28.557Z,3.93
2022-10-17T02:41:56.930Z,3.57
2022-10-17T02:44:24.021Z,3.60
2022-10-17T02:46:56.701Z,4.07
2022-10-17T02:49:27.759Z,3.83
2022-10-17T02:51:58.223Z,4.43
2022-10-17T02:54:32.081Z,4.53
2022-10-17T02:57:02.905Z,4.40
2022-10-17T02:59:30.632Z,4.90
2022-10-17T03:01:57.113Z,4.23
2022-10-17T03:04:23.492Z,4.20
2022-10-17T03:06:50.128Z,4.07
2022-10-17T03:09:16.574Z,4.37
2022-10-17T03:11:43.095Z,4.30
2022-10-17T03:14:09.675Z,4.20
2022-10-17T03:16:37.404Z,4.80
2022-10-17T03:19:04.031Z,5.20
2022-10-17T03:21:30.517Z,5.37
2022-10-17T03:23:57.139Z,5.10
2022-10-17T03:26:23.543Z,5.20
2022-10-17T03:28:53.486Z,5.50
2022-10-17T03:31:21.726Z,5.57
2022-10-17T03:33:48.110Z,4.67
2022-10-17T03:36:16.113Z,4.83
2022-10-17T03:38:43.107Z,5.07
2022-10-17T03:41:09.738Z,4.97
2022-10-17T03:43:36.230Z,5.40
2022-10-17T03:46:03.331Z,6.10
2022-10-17T03:48:30.853Z,6.70
2022-10-17T03:51:02.176Z,6.57
2022-10-17T03:53:29.307Z,6.20
2022-10-17T03:55:56.929Z,6.03
2022-10-17T03:58:23.388Z,6.53
2022-10-17T04:00:49.845Z,6.10
2022-10-17T04:03:17.399Z,7.13
2022-10-17T04:05:43.949Z,6.47
2022-10-17T04:08:10.376Z,6.87
2022-10-17T04:10:36.822Z,7.30
2022-10-17T04:13:03.324Z,7.43
2022-10-17T04:15:29.704Z,6.77
2022-10-17T04:17:56.161Z,7.10
2022-10-17T04:20:22.693Z,7.10
2022-10-17T04:22:49.078Z,6.77
2022-10-17T04:25:15.491Z,6.43
2022-10-17T04:27:41.972Z,8.57
2022-10-17T04:30:08.580Z,6.80
2022-10-17T04:32:41.388Z,7.00
2022-10-17T04:35:08.304Z,7.17
2022-10-17T04:37:34.735Z,7.20
2022-10-17T04:40:01.135Z,6.90
2022-10-17T04:42:29.357Z,7.47
2022-10-17T04:44:55.943Z,7.53
2022-10-17T04:47:22.369Z,7.00
2022-10-17T04:49:48.779Z,7.23
2022-10-17T04:52:15.193Z,6.80
2022-10-17T04:54:41.620Z,7.50
2022-10-17T04:57:08.101Z,7.70
2022-10-17T04:59:34.598Z,7.50
2022-10-17T05:02:01.063Z,7.13
2022-10-17T05:04:27.518Z,7.40
2022-10-17T05:06:53.972Z,6.80
2022-10-17T05:09:20.370Z,7.27
2022-10-17T05:11:47.472Z,7.90
2022-10-17T05:14:13.900Z,7.53
2022-10-17T05:16:40.340Z,7.47
2022-10-17T05:19:06.777Z,7.57
2022-10-17T05:24:09.330Z,7.40
2022-10-17T05:26:35.837Z,8.17
2022-10-17T05:29:03.075Z,7.80
2022-10-17T05:31:30.423Z,7.50
2022-10-17T05:34:00.423Z,7.30
2022-10-17T05:36:26.902Z,7.97
2022-10-17T05:38:53.348Z,7.53
2022-10-17T05:41:20.386Z,8.17
2022-10-17T05:43:47.074Z,8.80
2022-10-17T05:46:13.524Z,7.67
2022-10-17T05:48:40.046Z,7.90
2022-10-17T05:51:08.827Z,8.00
2022-10-17T05:53:37.543Z,8.57
2022-10-17T05:56:07.040Z,7.67
2022-10-17T05:58:51.804Z,8.53
2022-10-17T06:01:20.254Z,7.37
2022-10-17T06:03:46.713Z,7.57
2022-10-17T06:06:14.663Z,8.00
2022-10-17T06:08:41.495Z,7.57
2022-10-17T06:11:10.157Z,7.67
2022-10-17T06:13:38.193Z,7.73
2022-10-17T06:16:05.100Z,7.37
2022-10-17T06:18:31.769Z,8.03
2022-10-17T06:21:09.653Z,8.70
2022-10-17T06:23:36.106Z,7.67
2022-10-17T06:26:04.564Z,7.60
2022-10-17T06:28:31.708Z,7.90
2022-10-17T06:30:58.185Z,7.83
2022-10-17T06:33:24.915Z,7.50
2022-10-17T06:35:55.396Z,7.30
2022-10-17T06:38:22.047Z,7.07
2022-10-17T06:40:48.620Z,6.70
2022-10-17T06:43:15.088Z,6.87
2022-10-17T06:45:42.197Z,6.93
2022-10-17T06:48:09.059Z,7.50
2022-10-17T06:50:35.574Z,6.90
2022-10-17T06:53:02.229Z,6.33
2022-10-17T06:55:28.876Z,6.03
2022-10-17T06:57:56.273Z,6.30
2022-10-17T07:00:23.468Z,6.47
2022-10-17T07:02:49.940Z,5.50
2022-10-17T07:05:16.471Z,6.17
2022-10-17T07:07:44.778Z,5.53
2022-10-17T07:10:12.775Z,5.70
2022-10-17T07:12:39.539Z,5.77
2022-10-17T07:15:06.656Z,5.57
2022-10-17T07:17:33.087Z,5.53
2022-10-17T07:19:59.521Z,5.30
2022-10-17T07:22:25.999Z,5.00
2022-10-17T07:24:52.629Z,5.63
2022-10-17T07:27:19.301Z,5.70
2022-10-17T07:29:45.727Z,5.63
2022-10-17T07:32:12.205Z,5.40
2022-10-17T07:34:38.652Z,5.20
2022-10-17T07:37:06.941Z,5.53
2022-10-17T07:39:35.570Z,6.20
2022-10-17T07:42:02.085Z,5.40
2022-10-17T07:44:28.630Z,6.00
2022-10-17T07:46:55.161Z,4.70
2022-10-17T07:49:21.628Z,5.50
2022-10-17T07:51:48.724Z,4.80
2022-10-17T07:54:15.157Z,6.13
2022-10-17T07:56:41.614Z,4.93
2022-10-17T07:59:09.598Z,5.20
2022-10-17T08:01:36.899Z,5.00
2022-10-17T08:04:03.399Z,5.03
2022-10-17T08:06:29.821Z,5.23
2022-10-17T08:08:57.943Z,5.23
2022-10-17T08:11:25.631Z,4.90
2022-10-17T08:13:52.041Z,5.03
2022-10-17T08:16:18.626Z,5.53
2022-10-17T08:18:45.151Z,4.63
2022-10-17T08:21:13.197Z,4.97
2022-10-17T08:23:40.095Z,4.80
2022-10-17T08:26:13.192Z,5.20
2022-10-17T08:28:40.387Z,4.77
2022-10-17T08:31:11.207Z,5.00
2022-10-17T08:33:38.040Z,4.27
2022-10-17T08:36:05.727Z,4.30
2022-10-17T08:38:35.594Z,4.40
2022-10-17T08:41:11.954Z,4.23
2022-10-17T08:44:06.619Z,4.33
2022-10-17T08:46:36.897Z,4.53
2022-10-17T08:49:06.473Z,4.40
2022-10-17T08:51:34.932Z,4.10
2022-10-17T08:54:10.114Z,4.20
2022-10-17T08:56:48.824Z,4.03
2022-10-17T08:59:26.838Z,4.20
2022-10-17T09:02:24.400Z,4.47
2022-10-17T09:05:09.655Z,3.93
2022-10-17T09:07:52.379Z,4.20
2022-10-17T09:10:42.015Z,4.10
2022-10-17T09:13:26.959Z,3.47
2022-10-17T09:16:01.128Z,4.20
2022-10-17T09:18:31.437Z,4.27
2022-10-17T09:21:04.871Z,3.63
2022-10-17T09:23:44.941Z,3.70
2022-10-17T09:26:11.922Z,3.63
2022-10-17T09:28:41.480Z,3.90
2022-10-17T09:31:20.824Z,3.20
2022-10-17T09:33:54.167Z,4.13
2022-10-17T09:36:33.087Z,3.60
2022-10-17T09:39:09.434Z,3.80
2022-10-17T09:44:31.825Z,4.00
2022-10-17T09:47:23.651Z,3.83
2022-10-17T09:49:50.692Z,3.90
2022-10-17T09:52:39.591Z,3.77
2022-10-17T09:55:16.386Z,3.07
2022-10-17T09:58:03.705Z,3.70
2022-10-17T10:00:48.987Z,4.20
2022-10-17T10:03:23.226Z,4.03
2022-10-17T10:06:03.098Z,3.67
2022-10-17T10:08:35.724Z,3.63
2022-10-17T10:11:05.864Z,3.40
2022-10-17T10:13:34.087Z,4.00
2022-10-17T10:16:32.943Z,3.60
2022-10-17T10:18:59.627Z,3.67
2022-10-17T10:21:27.509Z,3.60
2022-10-17T10:24:06.137Z,3.53
2022-10-17T10:26:39.026Z,3.80
2022-10-17T10:29:18.914Z,3.67
2022-10-17T10:31:45.587Z,3.90
2022-10-17T10:34:22.545Z,3.93
2022-10-17T10:36:57.122Z,4.13
2022-10-17T10:39:36.092Z,3.47
2022-10-17T10:42:06.179Z,3.97
2022-10-17T10:44:35.759Z,4.27
2022-10-17T10:47:17.507Z,3.90
2022-10-17T10:49:44.868Z,3.77
2022-10-17T10:52:38.275Z,3.80
2022-10-17T10:55:20.051Z,4.10
2022-10-17T10:57:47.567Z,3.60
2022-10-17T11:00:21.515Z,3.97
2022-10-17T11:03:12.730Z,3.50
2022-10-17T11:05:42.423Z,4.37
2022-10-17T11:08:33.649Z,3.77
2022-10-17T11:11:27.759Z,4.00
2022-10-17T11:14:01.771Z,4.00
2022-10-17T11:16:33.172Z,4.67
2022-10-17T11:19:21.367Z,4.40
2022-10-17T11:21:49.007Z,5.33
2022-10-17T11:24:24.938Z,4.80
2022-10-17T11:26:57.307Z,5.87
2022-10-17T11:29:28.920Z,5.67
2022-10-17T11:31:57.332Z,6.00
2022-10-17T11:34:31.660Z,6.23
2022-10-17T11:37:02.875Z,6.07
2022-10-17T11:39:36.536Z,6.23
2022-10-17T11:42:07.187Z,7.20
2022-10-17T11:44:38.467Z,7.00
2022-10-17T11:47:20.350Z,6.53
2022-10-17T11:52:58.546Z,6.37
2022-10-17T11:55:27.453Z,6.70
2022-10-17T12:01:15.486Z,6.83
2022-10-17T12:03:49.606Z,7.17
2022-10-17T12:06:47.028Z,6.87
2022-10-17T12:09:35.301Z,7.37
2022-10-17T12:12:02.970Z,8.03
2022-10-17T12:14:37.332Z,7.23
2022-10-17T12:17:06.019Z,8.77
2022-10-17T12:19:37.679Z,8.53
2022-10-17T12:22:19.517Z,9.63
2022-10-17T12:25:02.912Z,9.37
2022-10-17T12:27:45.785Z,9.73
2022-10-17T12:30:12.313Z,9.83
2022-10-17T12:33:06.692Z,10.00
2022-10-17T12:35:35.618Z,9.87
2022-10-17T12:38:23.916Z,10.57
2022-10-17T12:40:55.421Z,9.60
2022-10-17T12:43:27.930Z,9.07
2022-10-17T12:45:57.946Z,9.17
2022-10-17T12:48:36.614Z,10.20
2022-10-17T12:54:17.133Z,10.30
2022-10-17T12:56:46.568Z,9.30
2022-10-17T12:59:34.418Z,9.17
2022-10-17T13:02:03.468Z,10.70
2022-10-17T13:04:30.741Z,9.37
2022-10-17T13:06:58.876Z,9.73
2022-10-17T13:09:30.838Z,10.23
2022-10-17T13:12:04.840Z,10.70
2022-10-17T13:14:32.354Z,10.50
2022-10-17T13:17:07.312Z,12.27
2022-10-17T13:19:45.682Z,11.70
2022-10-17T13:22:19.505Z,11.40
2022-10-17T13:24:46.622Z,12.33
2022-10-17T13:27:31.105Z,12.80
2022-10-17T13:30:03.389Z,12.83
2022-10-17T13:32:38.281Z,12.77
2022-10-17T13:35:06.847Z,12.07
2022-10-17T13:37:34.537Z,12.40
2022-10-17T13:40:11.333Z,13.37
2022-10-17T13:42:44.595Z,13.83
2022-10-17T13:45:18.375Z,12.40
2022-10-17T13:47:44.987Z,13.30
2022-10-17T13:50:44.056Z,13.43
2022-10-17T13:53:21.217Z,13.37
2022-10-17T13:56:26.498Z,13.50
2022-10-17T13:58:57.320Z,13.53
2022-10-17T14:01:25.813Z,13.60
2022-10-17T14:04:07.226Z,13.47
2022-10-17T14:06:43.951Z,13.57
2022-10-17T14:09:31.227Z,12.47
2022-10-17T14:12:08.548Z,13.33
2022-10-17T14:14:52.001Z,12.53
2022-10-17T14:17:26.668Z,12.23
2022-10-17T14:20:16.077Z,12.70
2022-10-17T14:22:47.049Z,12.93
2022-10-17T14:25:32.529Z,13.23
2022-10-17T14:28:14.842Z,12.87
2022-10-17T14:31:01.909Z,12.90
2022-10-17T14:33:31.442Z,12.93
2022-10-17T14:35:59.880Z,12.63
2022-10-17T14:38:28.631Z,12.13
2022-10-17T14:41:22.107Z,8.97
2022-10-17T14:43:53.487Z,12.27
2022-10-17T14:46:20.283Z,12.20
2022-10-17T14:48:52.583Z,9.60
2022-10-17T14:51:19.118Z,10.20
2022-10-17T14:54:19.882Z,10.73
2022-10-17T14:56:51.802Z,9.87
2022-10-17T14:59:42.010Z,9.37
2022-10-17T15:02:09.603Z,9.63
2022-10-17T15:04:36.087Z,9.70
2022-10-17T15:07:02.492Z,9.63
2022-10-17T15:09:29.049Z,9.07
2022-10-17T15:11:56.128Z,10.00
2022-10-17T15:14:22.574Z,9.63
2022-10-17T15:16:49.134Z,9.20
2022-10-17T15:19:15.680Z,9.10
2022-10-17T15:21:46.248Z,8.73
2022-10-17T15:24:14.987Z,8.87
2022-10-17T15:26:41.502Z,9.30
2022-10-17T15:29:15.351Z,8.37
2022-10-17T15:31:41.894Z,8.83
2022-10-17T15:34:08.456Z,8.00
2022-10-17T15:36:40.016Z,8.23
2022-10-17T15:39:06.461Z,8.67
2022-10-17T15:41:33.495Z,8.60
2022-10-17T15:44:00.211Z,8.23
2022-10-17T15:46:32.051Z,8.77
2022-10-17T15:49:02.770Z,9.03
2022-10-17T15:51:29.153Z,11.00
2022-10-17T15:53:55.717Z,10.97
2022-10-17T15:56:36.200Z,9.97
2022-10-17T15:59:10.663Z,10.13
2022-10-17T16:01:37.082Z,10.60
2022-10-17T16:04:03.540Z,10.40
2022-10-17T16:06:30.378Z,10.80
2022-10-17T16:08:56.825Z,10.73
2022-10-17T16:11:36.469Z,10.30
2022-10-17T16:14:07.858Z,9.33
2022-10-17T16:16:34.271Z,10.57
2022-10-17T16:19:01.404Z,11.10
2022-10-17T16:23:57.923Z,10.00
2022-10-17T16:26:24.475Z,11.63
2022-10-17T16:28:50.957Z,10.60
2022-10-17T16:31:23.567Z,10.90
2022-10-17T16:33:52.730Z,10.57
2022-10-17T16:36:19.767Z,11.10
2022-10-17T16:38:46.834Z,11.20
2022-10-17T16:41:23.398Z,11.47
2022-10-17T16:43:50.591Z,11.43
2022-10-17T16:46:17.371Z,11.50
2022-10-17T16:48:45.017Z,12.17
2022-10-17T16:51:12.512Z,11.80
2022-10-17T16:53:44.818Z,11.57
2022-10-17T16:56:14.340Z,13.10
2022-10-17T16:58:41.842Z,12.70
2022-10-17T17:01:16.805Z,13.73
2022-10-17T17:03:45.090Z,15.73
2022-10-17T17:06:13.727Z,14.53
2022-10-17T17:08:40.190Z,15.67
2022-10-17T17:11:07.593Z,14.17
2022-10-17T17:13:34.742Z,15.00
2022-10-17T17:16:12.757Z,15.97
2022-10-17T17:18:39.909Z,16.73
2022-10-17T17:21:07.558Z,15.63
2022-10-17T17:23:35.954Z,15.57
2022-10-17T17:26:08.531Z,15.03
2022-10-17T17:28:35.427Z,15.33
2022-10-17T17:31:02.055Z,14.17
2022-10-17T17:33:30.022Z,15.07
2022-10-17T17:35:58.429Z,14.30
2022-10-17T17:38:24.862Z,12.50
2022-10-17T17:40:51.418Z,9.93
2022-10-17T17:43:18.517Z,9.20
2022-10-17T17:45:45.580Z,7.77
2022-10-17T17:48:12.399Z,8.40
2022-10-17T17:50:40.096Z,5.97
2022-10-17T17:53:07.465Z,5.67
2022-10-17T17:55:34.230Z,5.40
2022-10-17T17:58:00.785Z,5.23
2022-10-17T18:00:27.691Z,11.30
2022-10-17T18:02:54.237Z,6.47
2022-10-17T18:05:20.703Z,7.70
2022-10-17T18:07:47.379Z,4.80
2022-10-17T18:12:42.037Z,4.00
2022-10-17T18:15:08.918Z,3.20
2022-10-17T18:17:35.345Z,3.17
2022-10-17T18:20:02.737Z,3.60
2022-10-17T18:22:29.603Z,3.27
2022-10-17T18:24:56.383Z,3.80
2022-10-17T18:27:22.967Z,3.67
2022-10-17T18:29:50.582Z,3.90
2022-10-17T18:32:17.308Z,3.60
2022-10-17T18:34:43.701Z,4.47
2022-10-17T18:37:10.224Z,4.20
2022-10-17T18:39:36.728Z,4.10
2022-10-17T18:42:03.194Z,5.10
2022-10-17T18:44:29.656Z,3.93
2022-10-17T18:46:58.559Z,4.70
2022-10-17T18:49:27.985Z,5.07
2022-10-17T18:51:54.799Z,4.90
2022-10-17T18:54:22.081Z,4.37
2022-10-17T18:56:53.309Z,4.67
2022-10-17T18:59:20.544Z,4.77
2022-10-17T19:01:47.515Z,4.77
2022-10-17T19:04:14.572Z,4.33
2022-10-17T19:06:41.532Z,5.50
2022-10-17T19:09:10.667Z,4.60
2022-10-17T19:11:38.201Z,5.33
2022-10-17T19:14:12.660Z,4.97
2022-10-17T19:16:44.873Z,4.73
2022-10-17T19:19:14.380Z,4.77
2022-10-17T19:21:41.189Z,5.13
2022-10-17T19:24:11.641Z,5.13
2022-10-17T19:26:39.687Z,5.23
2022-10-17T19:29:07.311Z,5.00
2022-10-17T19:31:35.055Z,4.47
2022-10-17T19:34:01.548Z,6.00
2022-10-17T19:36:33.183Z,5.23
2022-10-17T19:39:01.900Z,6.00
2022-10-17T19:41:28.590Z,6.80
2022-10-17T19:43:55.298Z,6.90
2022-10-17T19:46:23.369Z,6.00
2022-10-17T19:48:50.496Z,6.43
2022-10-17T19:51:19.008Z,6.17
2022-10-17T19:53:45.997Z,5.87
2022-10-17T19:56:13.419Z,5.80
2022-10-17T19:58:46.526Z,6.30
2022-10-17T20:01:15.439Z,5.93
2022-10-17T20:03:42.298Z,5.40
2022-10-17T20:06:09.145Z,6.00
2022-10-17T20:08:36.074Z,6.00
2022-10-17T20:11:07.778Z,6.07
2022-10-17T20:13:35.645Z,5.37
2022-10-17T20:16:02.204Z,6.07
2022-10-17T20:18:28.814Z,4.97
2022-10-17T20:20:55.567Z,4.57
2022-10-17T20:23:22.547Z,4.90
2022-10-17T20:26:13.327Z,4.70
2022-10-17T20:28:45.702Z,4.67
2022-10-17T20:31:12.511Z,4.97
2022-10-17T20:33:38.919Z,4.43
2022-10-17T20:36:06.197Z,4.97
2022-10-17T20:38:32.827Z,4.67
2022-10-17T20:41:08.087Z,4.60
2022-10-17T20:43:34.992Z,4.27
2022-10-17T20:46:09.724Z,4.60
2022-10-17T20:48:42.229Z,4.83
2022-10-17T20:51:10.086Z,4.50
2022-10-17T20:53:37.682Z,5.03
2022-10-17T20:56:17.714Z,5.47
2022-10-17T20:58:44.127Z,5.03
2022-10-17T21:01:10.942Z,5.03
2022-10-17T21:03:41.076Z,4.67
2022-10-17T21:06:10.942Z,5.43
2022-10-17T21:08:37.652Z,6.20
2022-10-17T21:11:30.554Z,6.10
2022-10-17T21:14:03.091Z,6.23
2022-10-17T21:16:31.169Z,7.07
2022-10-17T21:18:58.011Z,6.80
2022-10-17T21:21:26.970Z,6.80
2022-10-17T21:23:57.004Z,7.70
2022-10-17T21:26:23.749Z,7.53
2022-10-17T21:28:50.634Z,7.97
2022-10-17T21:31:25.153Z,7.90
2022-10-17T21:33:54.697Z,8.40
2022-10-17T21:36:21.796Z,7.97
2022-10-17T21:38:49.297Z,8.40
2022-10-17T21:41:17.555Z,8.93
2022-10-17T21:43:43.956Z,9.90
2022-10-17T21:46:13.672Z,10.03
2022-10-17T21:48:40.281Z,10.60
2022-10-17T21:51:09.731Z,11.63
2022-10-17T21:53:36.517Z,11.27
2022-10-17T21:56:05.195Z,12.03
2022-10-17T21:58:32.493Z,13.23
2022-10-17T22:01:15.652Z,12.20
2022-10-17T22:03:46.632Z,11.47
2022-10-17T22:06:38.863Z,12.83
2022-10-17T22:09:07.143Z,13.60
2022-10-17T22:11:35.062Z,12.93
2022-10-17T22:14:06.974Z,12.90
2022-10-17T22:16:33.960Z,13.03
2022-10-17T22:19:05.900Z,12.77
2022-10-17T22:21:34.655Z,13.40
2022-10-17T22:24:03.828Z,14.80
2022-10-17T22:26:31.654Z,14.77
2022-10-17T22:28:58.331Z,14.10
2022-10-17T22:31:25.170Z,15.10
2022-10-17T22:33:51.732Z,15.80
2022-10-17T22:36:18.405Z,16.30
2022-10-17T22:38:44.881Z,14.83
2022-10-17T22:41:11.332Z,16.63
2022-10-17T22:43:37.861Z,17.93
2022-10-17T22:46:05.717Z,15.73
2022-10-17T22:48:32.287Z,20.27
2022-10-17T22:50:59.485Z,19.77
2022-10-17T22:53:26.946Z,20.73
2022-10-17T22:55:54.470Z,22.00
2022-10-17T22:58:21.509Z,21.97
2022-10-17T23:00:49.228Z,21.60
2022-10-17T23:03:16.367Z,23.27
2022-10-17T23:05:43.159Z,22.40
2022-10-17T23:08:09.676Z,24.77
2022-10-17T23:10:36.139Z,24.33
2022-10-17T23:13:03.234Z,25.40
2022-10-17T23:15:31.626Z,25.67
2022-10-17T23:17:58.499Z,25.50
2022-10-17T23:20:25.008Z,25.87
2022-10-17T23:22:51.520Z,25.03
2022-10-17T23:25:17.923Z,24.30
2022-10-17T23:27:44.410Z,25.80
2022-10-17T23:30:11.793Z,23.67
2022-10-17T23:32:39.336Z,24.03
2022-10-17T23:35:06.458Z,25.87
2022-10-17T23:37:33.633Z,25.03
2022-10-17T23:40:00.356Z,26.93
2022-10-17T23:42:27.118Z,25.57
2022-10-17T23:44:53.646Z,26.67
2022-10-17T23:47:20.057Z,24.77
2022-10-17T23:49:46.566Z,27.80
2022-10-17T23:52:12.976Z,27.77
2022-10-17T23:54:39.377Z,27.00
2022-10-17T23:57:05.780Z,28.27
2022-10-17T23:59:32.180Z,27.30
